sensor_id;sensor_type;location;lat;lon;timestamp;P1;durP1;ratioP1;P2;durP2;ratioP2
73421;SDS011;61637;47.760;-122.022;2024-02-21T00:00:01;2.7;;;0.9;;
73421;SDS011;61637;47.760;-122.022;2024-02-21T00:02:01;1.8;;;0.7;;
73421;SDS011;61637;47.760;-122.022;2024-02-21T00:04:01;1.4;;;0.6;;
73421;SDS011;61637;47.760;-122.022;2024-02-21T00:06:01;2.8;;;0.7;;
73421;SDS011;61637;47.760;-122.022;2024-02-21T00:08:02;2.1;;;0.7;;
73421;SDS011;61637;47.760;-122.022;2024-02-21T00:10:01;2.8;;;0.7;;
73421;SDS011;61637;47.760;-122.022;2024-02-21T00:12:01;2.6;;;0.7;;
73421;SDS011;61637;47.760;-122.022;2024-02-21T00:14:01;2.5;;;0.8;;
73421;SDS011;61637;47.760;-122.022;2024-02-21T00:16:01;2.5;;;0.8;;
73421;SDS011;61637;47.760;-122.022;2024-02-21T00:18:01;2.7;;;0.8;;
73421;SDS011;61637;47.760;-122.022;2024-02-21T00:20:01;2.2;;;0.8;;
73421;SDS011;61637;47.760;-122.022;2024-02-21T00:22:01;2.0;;;0.7;;
73421;SDS011;61637;47.760;-122.022;2024-02-21T00:24:01;2.2;;;0.7;;
73421;SDS011;61637;47.760;-122.022;2024-02-21T00:26:01;2.2;;;0.8;;
73421;SDS011;61637;47.760;-122.022;2024-02-21T00:28:01;2.3;;;0.7;;
73421;SDS011;61637;47.760;-122.022;2024-02-21T00:30:01;2.4;;;0.7;;
73421;SDS011;61637;47.760;-122.022;2024-02-21T00:32:01;1.8;;;0.7;;
73421;SDS011;61637;47.760;-122.022;2024-02-21T00:34:01;2.7;;;0.8;;
73421;SDS011;61637;47.760;-122.022;2024-02-21T00:36:01;2.2;;;0.7;;
73421;SDS011;61637;47.760;-122.022;2024-02-21T00:38:01;3.0;;;0.8;;
73421;SDS011;61637;47.760;-122.022;2024-02-21T00:40:01;2.2;;;0.7;;
73421;SDS011;61637;47.760;-122.022;2024-02-21T00:42:01;2.5;;;0.7;;
73421;SDS011;61637;47.760;-122.022;2024-02-21T00:44:01;3.7;;;0.8;;
73421;SDS011;61637;47.760;-122.022;2024-02-21T00:46:01;3.8;;;0.8;;
73421;SDS011;61637;47.760;-122.022;2024-02-21T00:48:01;4.0;;;0.8;;
73421;SDS011;61637;47.760;-122.022;2024-02-21T00:50:01;3.7;;;0.8;;
73421;SDS011;61637;47.760;-122.022;2024-02-21T00:52:01;3.1;;;0.8;;
73421;SDS011;61637;47.760;-122.022;2024-02-21T00:54:01;2.8;;;0.7;;
73421;SDS011;61637;47.760;-122.022;2024-02-21T00:56:01;3.2;;;0.9;;
73421;SDS011;61637;47.760;-122.022;2024-02-21T00:58:01;3.5;;;0.9;;
73421;SDS011;61637;47.760;-122.022;2024-02-21T01:00:02;3.3;;;0.8;;
73421;SDS011;61637;47.760;-122.022;2024-02-21T01:02:01;4.5;;;0.8;;
73421;SDS011;61637;47.760;-122.022;2024-02-21T01:04:01;2.9;;;0.8;;
73421;SDS011;61637;47.760;-122.022;2024-02-21T01:06:01;2.5;;;0.8;;
73421;SDS011;61637;47.760;-122.022;2024-02-21T01:08:01;2.1;;;0.7;;
73421;SDS011;61637;47.760;-122.022;2024-02-21T01:10:01;2.8;;;0.8;;
73421;SDS011;61637;47.760;-122.022;2024-02-21T01:12:01;4.2;;;0.8;;
73421;SDS011;61637;47.760;-122.022;2024-02-21T01:14:01;1.9;;;0.7;;
73421;SDS011;61637;47.760;-122.022;2024-02-21T01:16:01;2.1;;;0.9;;
73421;SDS011;61637;47.760;-122.022;2024-02-21T01:18:02;2.7;;;0.9;;
73421;SDS011;61637;47.760;-122.022;2024-02-21T01:20:01;2.7;;;0.9;;
73421;SDS011;61637;47.760;-122.022;2024-02-21T01:22:01;2.8;;;0.8;;
73421;SDS011;61637;47.760;-122.022;2024-02-21T01:24:01;2.4;;;0.7;;
73421;SDS011;61637;47.760;-122.022;2024-02-21T01:26:01;2.9;;;0.7;;
73421;SDS011;61637;47.760;-122.022;2024-02-21T01:28:01;2.6;;;0.7;;
73421;SDS011;61637;47.760;-122.022;2024-02-21T01:30:01;2.9;;;0.8;;
73421;SDS011;61637;47.760;-122.022;2024-02-21T01:32:01;2.5;;;0.8;;
73421;SDS011;61637;47.760;-122.022;2024-02-21T01:34:01;2.9;;;0.8;;
73421;SDS011;61637;47.760;-122.022;2024-02-21T01:36:01;1.7;;;0.8;;
73421;SDS011;61637;47.760;-122.022;2024-02-21T01:38:01;2.0;;;0.8;;
73421;SDS011;61637;47.760;-122.022;2024-02-21T01:40:01;3.6;;;0.8;;
73421;SDS011;61637;47.760;-122.022;2024-02-21T01:42:01;2.0;;;0.8;;
73421;SDS011;61637;47.760;-122.022;2024-02-21T01:44:01;5.1;;;0.7;;
73421;SDS011;61637;47.760;-122.022;2024-02-21T01:46:01;2.8;;;0.8;;
73421;SDS011;61637;47.760;-122.022;2024-02-21T01:48:01;2.6;;;0.8;;
73421;SDS011;61637;47.760;-122.022;2024-02-21T01:50:01;5.5;;;0.9;;
73421;SDS011;61637;47.760;-122.022;2024-02-21T01:52:02;3.2;;;0.7;;
73421;SDS011;61637;47.760;-122.022;2024-02-21T01:54:01;2.5;;;0.8;;
73421;SDS011;61637;47.760;-122.022;2024-02-21T01:56:02;2.3;;;0.7;;
73421;SDS011;61637;47.760;-122.022;2024-02-21T01:58:01;3.0;;;0.8;;
73421;SDS011;61637;47.760;-122.022;2024-02-21T02:00:02;3.2;;;1.0;;
73421;SDS011;61637;47.760;-122.022;2024-02-21T02:02:02;1.8;;;0.8;;
73421;SDS011;61637;47.760;-122.022;2024-02-21T02:04:01;2.4;;;0.8;;
73421;SDS011;61637;47.760;-122.022;2024-02-21T02:06:03;3.5;;;0.8;;
73421;SDS011;61637;47.760;-122.022;2024-02-21T02:08:01;6.0;;;1.0;;
73421;SDS011;61637;47.760;-122.022;2024-02-21T02:10:01;3.4;;;0.8;;
73421;SDS011;61637;47.760;-122.022;2024-02-21T02:12:02;3.0;;;0.9;;
73421;SDS011;61637;47.760;-122.022;2024-02-21T02:14:01;4.0;;;0.9;;
73421;SDS011;61637;47.760;-122.022;2024-02-21T02:16:01;2.7;;;0.9;;
73421;SDS011;61637;47.760;-122.022;2024-02-21T02:18:01;2.3;;;0.8;;
73421;SDS011;61637;47.760;-122.022;2024-02-21T02:20:01;2.5;;;0.8;;
73421;SDS011;61637;47.760;-122.022;2024-02-21T02:22:07;2.5;;;0.8;;
73421;SDS011;61637;47.760;-122.022;2024-02-21T02:24:01;3.0;;;1.0;;
73421;SDS011;61637;47.760;-122.022;2024-02-21T02:26:01;3.0;;;0.9;;
73421;SDS011;61637;47.760;-122.022;2024-02-21T02:28:01;2.7;;;0.9;;
73421;SDS011;61637;47.760;-122.022;2024-02-21T02:30:01;2.9;;;0.8;;
73421;SDS011;61637;47.760;-122.022;2024-02-21T02:32:01;2.2;;;0.8;;
73421;SDS011;61637;47.760;-122.022;2024-02-21T02:34:01;3.8;;;0.9;;
73421;SDS011;61637;47.760;-122.022;2024-02-21T02:36:01;2.9;;;0.9;;
73421;SDS011;61637;47.760;-122.022;2024-02-21T02:38:01;2.8;;;0.8;;
73421;SDS011;61637;47.760;-122.022;2024-02-21T02:40:01;3.1;;;0.8;;
73421;SDS011;61637;47.760;-122.022;2024-02-21T02:42:02;2.9;;;0.9;;
73421;SDS011;61637;47.760;-122.022;2024-02-21T02:44:01;3.8;;;1.0;;
73421;SDS011;61637;47.760;-122.022;2024-02-21T02:46:01;2.0;;;0.8;;
73421;SDS011;61637;47.760;-122.022;2024-02-21T02:48:01;4.3;;;0.9;;
73421;SDS011;61637;47.760;-122.022;2024-02-21T02:50:02;2.4;;;0.8;;
73421;SDS011;61637;47.760;-122.022;2024-02-21T02:52:01;2.8;;;0.9;;
73421;SDS011;61637;47.760;-122.022;2024-02-21T02:54:02;2.6;;;0.8;;
73421;SDS011;61637;47.760;-122.022;2024-02-21T02:56:01;3.6;;;0.8;;
73421;SDS011;61637;47.760;-122.022;2024-02-21T02:58:01;2.8;;;0.8;;
73421;SDS011;61637;47.760;-122.022;2024-02-21T03:00:01;3.9;;;0.9;;
73421;SDS011;61637;47.760;-122.022;2024-02-21T03:02:02;3.6;;;0.9;;
73421;SDS011;61637;47.760;-122.022;2024-02-21T03:04:01;2.2;;;0.8;;
73421;SDS011;61637;47.760;-122.022;2024-02-21T03:06:01;3.0;;;0.8;;
73421;SDS011;61637;47.760;-122.022;2024-02-21T03:08:01;2.7;;;0.8;;
73421;SDS011;61637;47.760;-122.022;2024-02-21T03:10:01;4.9;;;0.9;;
73421;SDS011;61637;47.760;-122.022;2024-02-21T03:12:01;4.9;;;0.9;;
73421;SDS011;61637;47.760;-122.022;2024-02-21T03:14:01;4.3;;;0.9;;
73421;SDS011;61637;47.760;-122.022;2024-02-21T03:16:01;4.6;;;0.9;;
73421;SDS011;61637;47.760;-122.022;2024-02-21T03:18:01;3.5;;;0.9;;
73421;SDS011;61637;47.760;-122.022;2024-02-21T03:20:02;3.3;;;0.9;;
73421;SDS011;61637;47.760;-122.022;2024-02-21T03:22:01;4.4;;;0.9;;
73421;SDS011;61637;47.760;-122.022;2024-02-21T03:24:01;3.0;;;0.9;;
73421;SDS011;61637;47.760;-122.022;2024-02-21T03:26:01;4.5;;;1.0;;
73421;SDS011;61637;47.760;-122.022;2024-02-21T03:28:01;3.0;;;0.9;;
73421;SDS011;61637;47.760;-122.022;2024-02-21T03:30:01;3.7;;;0.8;;
73421;SDS011;61637;47.760;-122.022;2024-02-21T03:32:01;3.7;;;0.9;;
73421;SDS011;61637;47.760;-122.022;2024-02-21T03:34:01;2.6;;;1.0;;
73421;SDS011;61637;47.760;-122.022;2024-02-21T03:36:01;2.6;;;0.9;;
73421;SDS011;61637;47.760;-122.022;2024-02-21T03:38:01;2.4;;;0.9;;
73421;SDS011;61637;47.760;-122.022;2024-02-21T03:40:01;4.3;;;0.9;;
73421;SDS011;61637;47.760;-122.022;2024-02-21T03:42:02;3.5;;;1.0;;
73421;SDS011;61637;47.760;-122.022;2024-02-21T03:44:01;4.3;;;0.9;;
73421;SDS011;61637;47.760;-122.022;2024-02-21T03:46:01;4.5;;;1.0;;
73421;SDS011;61637;47.760;-122.022;2024-02-21T03:48:01;2.4;;;0.9;;
73421;SDS011;61637;47.760;-122.022;2024-02-21T03:50:01;3.7;;;1.0;;
73421;SDS011;61637;47.760;-122.022;2024-02-21T03:52:01;3.1;;;1.0;;
73421;SDS011;61637;47.760;-122.022;2024-02-21T03:54:01;3.6;;;1.0;;
73421;SDS011;61637;47.760;-122.022;2024-02-21T03:56:01;2.9;;;1.0;;
73421;SDS011;61637;47.760;-122.022;2024-02-21T03:58:01;4.9;;;1.1;;
73421;SDS011;61637;47.760;-122.022;2024-02-21T04:00:01;4.0;;;1.0;;
73421;SDS011;61637;47.760;-122.022;2024-02-21T04:02:01;4.1;;;1.2;;
73421;SDS011;61637;47.760;-122.022;2024-02-21T04:04:01;4.5;;;1.0;;
73421;SDS011;61637;47.760;-122.022;2024-02-21T04:06:01;3.4;;;1.1;;
73421;SDS011;61637;47.760;-122.022;2024-02-21T04:08:05;3.3;;;1.1;;
73421;SDS011;61637;47.760;-122.022;2024-02-21T04:10:01;3.8;;;1.0;;
73421;SDS011;61637;47.760;-122.022;2024-02-21T04:12:01;3.1;;;1.0;;
73421;SDS011;61637;47.760;-122.022;2024-02-21T04:14:01;4.4;;;1.1;;
73421;SDS011;61637;47.760;-122.022;2024-02-21T04:16:01;5.6;;;1.2;;
73421;SDS011;61637;47.760;-122.022;2024-02-21T04:18:02;5.2;;;1.1;;
73421;SDS011;61637;47.760;-122.022;2024-02-21T04:20:03;6.1;;;1.2;;
73421;SDS011;61637;47.760;-122.022;2024-02-21T04:22:01;3.0;;;1.1;;
73421;SDS011;61637;47.760;-122.022;2024-02-21T04:24:01;4.9;;;1.3;;
73421;SDS011;61637;47.760;-122.022;2024-02-21T04:26:01;3.7;;;1.0;;
73421;SDS011;61637;47.760;-122.022;2024-02-21T04:28:01;5.9;;;1.5;;
73421;SDS011;61637;47.760;-122.022;2024-02-21T04:30:01;3.8;;;1.2;;
73421;SDS011;61637;47.760;-122.022;2024-02-21T04:32:02;3.3;;;1.1;;
73421;SDS011;61637;47.760;-122.022;2024-02-21T04:34:01;4.0;;;1.2;;
73421;SDS011;61637;47.760;-122.022;2024-02-21T04:36:01;4.3;;;1.2;;
73421;SDS011;61637;47.760;-122.022;2024-02-21T04:38:01;3.8;;;1.1;;
73421;SDS011;61637;47.760;-122.022;2024-02-21T04:40:01;2.8;;;1.0;;
73421;SDS011;61637;47.760;-122.022;2024-02-21T04:42:01;4.0;;;1.1;;
73421;SDS011;61637;47.760;-122.022;2024-02-21T04:44:01;4.0;;;1.1;;
73421;SDS011;61637;47.760;-122.022;2024-02-21T04:46:01;3.6;;;1.1;;
73421;SDS011;61637;47.760;-122.022;2024-02-21T04:48:01;4.7;;;1.1;;
73421;SDS011;61637;47.760;-122.022;2024-02-21T04:50:02;3.4;;;1.1;;
73421;SDS011;61637;47.760;-122.022;2024-02-21T04:52:01;4.2;;;1.1;;
73421;SDS011;61637;47.760;-122.022;2024-02-21T04:54:01;4.1;;;1.0;;
73421;SDS011;61637;47.760;-122.022;2024-02-21T04:56:01;3.8;;;1.2;;
73421;SDS011;61637;47.760;-122.022;2024-02-21T04:58:01;3.4;;;1.1;;
73421;SDS011;61637;47.760;-122.022;2024-02-21T05:00:01;5.4;;;1.2;;
73421;SDS011;61637;47.760;-122.022;2024-02-21T05:02:01;3.4;;;1.1;;
73421;SDS011;61637;47.760;-122.022;2024-02-21T05:04:01;3.6;;;1.0;;
73421;SDS011;61637;47.760;-122.022;2024-02-21T05:06:01;4.3;;;1.1;;
73421;SDS011;61637;47.760;-122.022;2024-02-21T05:08:01;4.6;;;1.2;;
73421;SDS011;61637;47.760;-122.022;2024-02-21T05:10:01;5.0;;;1.0;;
73421;SDS011;61637;47.760;-122.022;2024-02-21T05:12:01;2.9;;;1.0;;
73421;SDS011;61637;47.760;-122.022;2024-02-21T05:14:01;3.8;;;1.1;;
73421;SDS011;61637;47.760;-122.022;2024-02-21T05:16:01;2.8;;;0.9;;
73421;SDS011;61637;47.760;-122.022;2024-02-21T05:18:01;3.2;;;1.1;;
73421;SDS011;61637;47.760;-122.022;2024-02-21T05:20:01;3.0;;;0.9;;
73421;SDS011;61637;47.760;-122.022;2024-02-21T05:22:01;4.2;;;1.2;;
73421;SDS011;61637;47.760;-122.022;2024-02-21T05:24:01;4.4;;;1.0;;
73421;SDS011;61637;47.760;-122.022;2024-02-21T05:26:01;3.0;;;1.1;;
73421;SDS011;61637;47.760;-122.022;2024-02-21T05:28:01;2.4;;;1.0;;
73421;SDS011;61637;47.760;-122.022;2024-02-21T05:30:03;4.9;;;1.3;;
73421;SDS011;61637;47.760;-122.022;2024-02-21T05:32:01;4.6;;;1.4;;
73421;SDS011;61637;47.760;-122.022;2024-02-21T05:34:01;3.7;;;1.1;;
73421;SDS011;61637;47.760;-122.022;2024-02-21T05:36:01;4.0;;;1.3;;
73421;SDS011;61637;47.760;-122.022;2024-02-21T05:38:01;3.4;;;1.0;;
73421;SDS011;61637;47.760;-122.022;2024-02-21T05:40:01;3.3;;;1.2;;
73421;SDS011;61637;47.760;-122.022;2024-02-21T05:42:01;5.8;;;1.4;;
73421;SDS011;61637;47.760;-122.022;2024-02-21T05:44:01;5.0;;;1.4;;
73421;SDS011;61637;47.760;-122.022;2024-02-21T05:46:01;4.0;;;1.2;;
73421;SDS011;61637;47.760;-122.022;2024-02-21T05:48:01;3.0;;;1.1;;
73421;SDS011;61637;47.760;-122.022;2024-02-21T05:50:01;5.5;;;1.5;;
73421;SDS011;61637;47.760;-122.022;2024-02-21T05:52:01;4.2;;;1.3;;
73421;SDS011;61637;47.760;-122.022;2024-02-21T05:54:02;3.3;;;1.0;;
73421;SDS011;61637;47.760;-122.022;2024-02-21T05:56:01;3.3;;;1.1;;
73421;SDS011;61637;47.760;-122.022;2024-02-21T05:58:01;5.9;;;1.4;;
73421;SDS011;61637;47.760;-122.022;2024-02-21T06:00:04;4.0;;;1.3;;
73421;SDS011;61637;47.760;-122.022;2024-02-21T06:02:01;5.0;;;1.1;;
73421;SDS011;61637;47.760;-122.022;2024-02-21T06:04:01;3.4;;;1.1;;
73421;SDS011;61637;47.760;-122.022;2024-02-21T06:06:01;4.1;;;1.2;;
73421;SDS011;61637;47.760;-122.022;2024-02-21T06:08:01;3.1;;;1.2;;
73421;SDS011;61637;47.760;-122.022;2024-02-21T06:10:02;3.5;;;1.1;;
73421;SDS011;61637;47.760;-122.022;2024-02-21T06:12:01;3.0;;;1.0;;
73421;SDS011;61637;47.760;-122.022;2024-02-21T06:14:01;4.5;;;1.4;;
73421;SDS011;61637;47.760;-122.022;2024-02-21T06:16:01;3.9;;;1.3;;
73421;SDS011;61637;47.760;-122.022;2024-02-21T06:18:01;3.8;;;1.1;;
73421;SDS011;61637;47.760;-122.022;2024-02-21T06:20:01;4.5;;;1.1;;
73421;SDS011;61637;47.760;-122.022;2024-02-21T06:22:01;3.8;;;1.0;;
73421;SDS011;61637;47.760;-122.022;2024-02-21T06:24:01;3.2;;;1.0;;
73421;SDS011;61637;47.760;-122.022;2024-02-21T06:26:01;4.5;;;1.1;;
73421;SDS011;61637;47.760;-122.022;2024-02-21T06:28:01;3.6;;;0.9;;
73421;SDS011;61637;47.760;-122.022;2024-02-21T06:30:01;4.2;;;1.1;;
73421;SDS011;61637;47.760;-122.022;2024-02-21T06:32:02;2.5;;;0.9;;
73421;SDS011;61637;47.760;-122.022;2024-02-21T06:34:01;4.8;;;0.9;;
73421;SDS011;61637;47.760;-122.022;2024-02-21T06:36:01;3.1;;;0.8;;
73421;SDS011;61637;47.760;-122.022;2024-02-21T06:38:01;2.9;;;0.9;;
73421;SDS011;61637;47.760;-122.022;2024-02-21T06:40:01;3.8;;;1.0;;
73421;SDS011;61637;47.760;-122.022;2024-02-21T06:42:01;2.6;;;0.9;;
73421;SDS011;61637;47.760;-122.022;2024-02-21T06:44:02;4.3;;;0.9;;
73421;SDS011;61637;47.760;-122.022;2024-02-21T06:46:01;2.6;;;1.0;;
73421;SDS011;61637;47.760;-122.022;2024-02-21T06:48:01;4.3;;;1.0;;
73421;SDS011;61637;47.760;-122.022;2024-02-21T06:50:01;3.5;;;1.0;;
73421;SDS011;61637;47.760;-122.022;2024-02-21T06:52:01;4.5;;;1.1;;
73421;SDS011;61637;47.760;-122.022;2024-02-21T06:54:01;3.3;;;1.1;;
73421;SDS011;61637;47.760;-122.022;2024-02-21T06:56:01;4.0;;;1.1;;
73421;SDS011;61637;47.760;-122.022;2024-02-21T06:58:02;4.5;;;1.1;;
73421;SDS011;61637;47.760;-122.022;2024-02-21T07:00:01;3.9;;;1.0;;
73421;SDS011;61637;47.760;-122.022;2024-02-21T07:02:01;4.7;;;1.1;;
73421;SDS011;61637;47.760;-122.022;2024-02-21T07:04:01;4.6;;;1.3;;
73421;SDS011;61637;47.760;-122.022;2024-02-21T07:06:01;4.1;;;1.1;;
73421;SDS011;61637;47.760;-122.022;2024-02-21T07:08:01;4.2;;;1.2;;
73421;SDS011;61637;47.760;-122.022;2024-02-21T07:10:01;6.7;;;1.2;;
73421;SDS011;61637;47.760;-122.022;2024-02-21T07:12:02;2.7;;;0.9;;
73421;SDS011;61637;47.760;-122.022;2024-02-21T07:14:01;5.8;;;1.2;;
73421;SDS011;61637;47.760;-122.022;2024-02-21T07:16:01;6.0;;;1.1;;
73421;SDS011;61637;47.760;-122.022;2024-02-21T07:18:01;5.0;;;1.1;;
73421;SDS011;61637;47.760;-122.022;2024-02-21T07:20:01;4.6;;;1.1;;
73421;SDS011;61637;47.760;-122.022;2024-02-21T07:22:01;3.7;;;1.1;;
73421;SDS011;61637;47.760;-122.022;2024-02-21T07:24:01;3.6;;;1.1;;
73421;SDS011;61637;47.760;-122.022;2024-02-21T07:26:01;4.2;;;0.9;;
73421;SDS011;61637;47.760;-122.022;2024-02-21T07:28:01;3.0;;;1.0;;
73421;SDS011;61637;47.760;-122.022;2024-02-21T07:30:01;2.5;;;0.9;;
73421;SDS011;61637;47.760;-122.022;2024-02-21T07:32:01;3.8;;;0.9;;
73421;SDS011;61637;47.760;-122.022;2024-02-21T07:34:01;4.1;;;0.8;;
73421;SDS011;61637;47.760;-122.022;2024-02-21T07:36:05;4.0;;;1.1;;
73421;SDS011;61637;47.760;-122.022;2024-02-21T07:38:01;5.2;;;0.9;;
73421;SDS011;61637;47.760;-122.022;2024-02-21T07:40:01;3.6;;;1.1;;
73421;SDS011;61637;47.760;-122.022;2024-02-21T07:42:01;2.7;;;0.9;;
73421;SDS011;61637;47.760;-122.022;2024-02-21T07:44:01;6.4;;;1.1;;
73421;SDS011;61637;47.760;-122.022;2024-02-21T07:46:01;2.3;;;0.8;;
73421;SDS011;61637;47.760;-122.022;2024-02-21T07:48:01;3.7;;;1.1;;
73421;SDS011;61637;47.760;-122.022;2024-02-21T07:50:02;2.7;;;1.0;;
73421;SDS011;61637;47.760;-122.022;2024-02-21T07:52:01;3.7;;;0.9;;
73421;SDS011;61637;47.760;-122.022;2024-02-21T07:54:01;5.2;;;1.1;;
73421;SDS011;61637;47.760;-122.022;2024-02-21T07:56:01;4.1;;;1.0;;
73421;SDS011;61637;47.760;-122.022;2024-02-21T07:58:02;3.7;;;1.0;;
73421;SDS011;61637;47.760;-122.022;2024-02-21T08:00:01;3.1;;;0.9;;
73421;SDS011;61637;47.760;-122.022;2024-02-21T08:02:01;3.4;;;1.0;;
73421;SDS011;61637;47.760;-122.022;2024-02-21T08:04:01;4.5;;;1.0;;
73421;SDS011;61637;47.760;-122.022;2024-02-21T08:06:02;2.8;;;1.0;;
73421;SDS011;61637;47.760;-122.022;2024-02-21T08:08:01;3.8;;;1.0;;
73421;SDS011;61637;47.760;-122.022;2024-02-21T08:10:02;3.9;;;0.9;;
73421;SDS011;61637;47.760;-122.022;2024-02-21T08:12:01;5.1;;;1.1;;
73421;SDS011;61637;47.760;-122.022;2024-02-21T08:14:01;4.4;;;1.0;;
73421;SDS011;61637;47.760;-122.022;2024-02-21T08:16:01;2.4;;;0.9;;
73421;SDS011;61637;47.760;-122.022;2024-02-21T08:18:01;2.7;;;0.9;;
73421;SDS011;61637;47.760;-122.022;2024-02-21T08:20:01;5.6;;;1.2;;
73421;SDS011;61637;47.760;-122.022;2024-02-21T08:22:01;3.3;;;0.9;;
73421;SDS011;61637;47.760;-122.022;2024-02-21T08:24:01;3.4;;;0.9;;
73421;SDS011;61637;47.760;-122.022;2024-02-21T08:26:03;2.9;;;1.1;;
73421;SDS011;61637;47.760;-122.022;2024-02-21T08:28:01;3.8;;;1.0;;
73421;SDS011;61637;47.760;-122.022;2024-02-21T08:30:01;3.6;;;1.2;;
73421;SDS011;61637;47.760;-122.022;2024-02-21T08:32:01;3.3;;;1.0;;
73421;SDS011;61637;47.760;-122.022;2024-02-21T08:34:01;3.3;;;1.0;;
73421;SDS011;61637;47.760;-122.022;2024-02-21T08:36:01;3.8;;;1.1;;
73421;SDS011;61637;47.760;-122.022;2024-02-21T08:38:01;4.0;;;1.2;;
73421;SDS011;61637;47.760;-122.022;2024-02-21T08:40:01;6.0;;;1.4;;
73421;SDS011;61637;47.760;-122.022;2024-02-21T08:42:01;3.9;;;1.1;;
73421;SDS011;61637;47.760;-122.022;2024-02-21T08:44:01;3.7;;;1.2;;
73421;SDS011;61637;47.760;-122.022;2024-02-21T08:46:01;4.6;;;1.3;;
73421;SDS011;61637;47.760;-122.022;2024-02-21T08:48:01;5.5;;;1.5;;
73421;SDS011;61637;47.760;-122.022;2024-02-21T08:50:01;4.3;;;1.2;;
73421;SDS011;61637;47.760;-122.022;2024-02-21T08:52:01;3.8;;;1.2;;
73421;SDS011;61637;47.760;-122.022;2024-02-21T08:54:01;3.1;;;1.0;;
73421;SDS011;61637;47.760;-122.022;2024-02-21T08:56:01;3.8;;;1.0;;
73421;SDS011;61637;47.760;-122.022;2024-02-21T08:58:01;4.3;;;1.0;;
73421;SDS011;61637;47.760;-122.022;2024-02-21T09:00:01;3.4;;;1.1;;
73421;SDS011;61637;47.760;-122.022;2024-02-21T09:02:01;3.8;;;1.0;;
73421;SDS011;61637;47.760;-122.022;2024-02-21T09:04:01;3.0;;;1.0;;
73421;SDS011;61637;47.760;-122.022;2024-02-21T09:06:01;3.0;;;0.9;;
73421;SDS011;61637;47.760;-122.022;2024-02-21T09:08:01;2.2;;;0.8;;
73421;SDS011;61637;47.760;-122.022;2024-02-21T09:10:01;2.2;;;0.8;;
73421;SDS011;61637;47.760;-122.022;2024-02-21T09:12:01;4.8;;;0.8;;
73421;SDS011;61637;47.760;-122.022;2024-02-21T09:14:01;3.2;;;0.8;;
73421;SDS011;61637;47.760;-122.022;2024-02-21T09:16:01;2.0;;;0.7;;
73421;SDS011;61637;47.760;-122.022;2024-02-21T09:18:01;3.0;;;0.9;;
73421;SDS011;61637;47.760;-122.022;2024-02-21T09:20:01;3.5;;;0.9;;
73421;SDS011;61637;47.760;-122.022;2024-02-21T09:22:01;3.0;;;1.0;;
73421;SDS011;61637;47.760;-122.022;2024-02-21T09:24:01;2.2;;;0.7;;
73421;SDS011;61637;47.760;-122.022;2024-02-21T09:26:01;2.4;;;0.9;;
73421;SDS011;61637;47.760;-122.022;2024-02-21T09:28:02;3.4;;;0.8;;
73421;SDS011;61637;47.760;-122.022;2024-02-21T09:30:01;3.1;;;0.9;;
73421;SDS011;61637;47.760;-122.022;2024-02-21T09:32:01;3.7;;;0.9;;
73421;SDS011;61637;47.760;-122.022;2024-02-21T09:34:01;2.6;;;0.8;;
73421;SDS011;61637;47.760;-122.022;2024-02-21T09:36:01;3.0;;;0.8;;
73421;SDS011;61637;47.760;-122.022;2024-02-21T09:38:01;2.5;;;0.8;;
73421;SDS011;61637;47.760;-122.022;2024-02-21T09:40:01;3.1;;;0.8;;
73421;SDS011;61637;47.760;-122.022;2024-02-21T09:42:06;2.8;;;0.8;;
73421;SDS011;61637;47.760;-122.022;2024-02-21T09:44:01;2.5;;;0.8;;
73421;SDS011;61637;47.760;-122.022;2024-02-21T09:46:02;3.1;;;0.9;;
73421;SDS011;61637;47.760;-122.022;2024-02-21T09:50:04;3.5;;;0.8;;
73421;SDS011;61637;47.760;-122.022;2024-02-21T09:52:02;2.9;;;0.7;;
73421;SDS011;61637;47.760;-122.022;2024-02-21T09:54:01;2.6;;;0.9;;
73421;SDS011;61637;47.760;-122.022;2024-02-21T09:56:01;3.2;;;0.8;;
73421;SDS011;61637;47.760;-122.022;2024-02-21T09:58:02;2.7;;;0.8;;
73421;SDS011;61637;47.760;-122.022;2024-02-21T10:00:01;2.4;;;0.8;;
73421;SDS011;61637;47.760;-122.022;2024-02-21T10:02:02;2.5;;;0.8;;
73421;SDS011;61637;47.760;-122.022;2024-02-21T10:04:02;3.7;;;0.9;;
73421;SDS011;61637;47.760;-122.022;2024-02-21T10:06:01;4.3;;;0.8;;
73421;SDS011;61637;47.760;-122.022;2024-02-21T10:08:01;3.0;;;0.9;;
73421;SDS011;61637;47.760;-122.022;2024-02-21T10:10:02;3.7;;;0.8;;
73421;SDS011;61637;47.760;-122.022;2024-02-21T10:12:09;2.7;;;0.9;;
73421;SDS011;61637;47.760;-122.022;2024-02-21T10:14:04;5.1;;;0.8;;
73421;SDS011;61637;47.760;-122.022;2024-02-21T10:16:03;2.9;;;0.8;;
73421;SDS011;61637;47.760;-122.022;2024-02-21T10:18:02;2.9;;;0.8;;
73421;SDS011;61637;47.760;-122.022;2024-02-21T10:22:03;4.3;;;0.9;;
73421;SDS011;61637;47.760;-122.022;2024-02-21T10:24:01;3.6;;;0.8;;
73421;SDS011;61637;47.760;-122.022;2024-02-21T10:26:05;3.3;;;0.7;;
73421;SDS011;61637;47.760;-122.022;2024-02-21T10:28:03;2.2;;;0.8;;
73421;SDS011;61637;47.760;-122.022;2024-02-21T10:30:01;2.5;;;1.1;;
73421;SDS011;61637;47.760;-122.022;2024-02-21T10:32:09;2.7;;;0.9;;
73421;SDS011;61637;47.760;-122.022;2024-02-21T10:34:01;3.4;;;0.9;;
73421;SDS011;61637;47.760;-122.022;2024-02-21T10:36:09;3.1;;;0.9;;
73421;SDS011;61637;47.760;-122.022;2024-02-21T10:38:01;2.7;;;0.9;;
73421;SDS011;61637;47.760;-122.022;2024-02-21T10:40:01;3.6;;;0.9;;
73421;SDS011;61637;47.760;-122.022;2024-02-21T10:42:02;2.3;;;0.8;;
73421;SDS011;61637;47.760;-122.022;2024-02-21T10:44:05;2.8;;;0.9;;
73421;SDS011;61637;47.760;-122.022;2024-02-21T10:46:03;3.7;;;0.9;;
73421;SDS011;61637;47.760;-122.022;2024-02-21T10:48:10;2.6;;;0.9;;
73421;SDS011;61637;47.760;-122.022;2024-02-21T10:50:04;3.4;;;1.1;;
73421;SDS011;61637;47.760;-122.022;2024-02-21T10:52:14;2.8;;;0.9;;
73421;SDS011;61637;47.760;-122.022;2024-02-21T10:54:11;2.8;;;0.9;;
73421;SDS011;61637;47.760;-122.022;2024-02-21T10:56:09;4.1;;;1.1;;
73421;SDS011;61637;47.760;-122.022;2024-02-21T10:58:01;5.3;;;1.1;;
73421;SDS011;61637;47.760;-122.022;2024-02-21T11:00:02;3.6;;;1.0;;
73421;SDS011;61637;47.760;-122.022;2024-02-21T11:02:01;3.3;;;1.0;;
73421;SDS011;61637;47.760;-122.022;2024-02-21T11:04:03;3.6;;;1.0;;
73421;SDS011;61637;47.760;-122.022;2024-02-21T11:06:01;3.3;;;1.0;;
73421;SDS011;61637;47.760;-122.022;2024-02-21T11:08:02;3.7;;;1.1;;
73421;SDS011;61637;47.760;-122.022;2024-02-21T11:10:01;4.2;;;1.2;;
73421;SDS011;61637;47.760;-122.022;2024-02-21T11:12:03;3.2;;;0.9;;
73421;SDS011;61637;47.760;-122.022;2024-02-21T11:14:04;4.2;;;1.2;;
73421;SDS011;61637;47.760;-122.022;2024-02-21T11:16:10;3.6;;;1.1;;
73421;SDS011;61637;47.760;-122.022;2024-02-21T11:18:01;3.9;;;1.0;;
73421;SDS011;61637;47.760;-122.022;2024-02-21T11:20:11;3.2;;;0.9;;
73421;SDS011;61637;47.760;-122.022;2024-02-21T11:22:01;3.6;;;1.0;;
73421;SDS011;61637;47.760;-122.022;2024-02-21T11:24:01;2.8;;;1.0;;
73421;SDS011;61637;47.760;-122.022;2024-02-21T11:26:04;3.7;;;0.9;;
73421;SDS011;61637;47.760;-122.022;2024-02-21T11:28:02;3.9;;;0.9;;
73421;SDS011;61637;47.760;-122.022;2024-02-21T11:30:04;4.2;;;1.0;;
73421;SDS011;61637;47.760;-122.022;2024-02-21T11:32:03;2.5;;;0.9;;
73421;SDS011;61637;47.760;-122.022;2024-02-21T11:34:01;2.8;;;0.8;;
73421;SDS011;61637;47.760;-122.022;2024-02-21T11:36:01;4.5;;;0.8;;
73421;SDS011;61637;47.760;-122.022;2024-02-21T11:38:10;2.7;;;0.8;;
73421;SDS011;61637;47.760;-122.022;2024-02-21T11:40:02;5.8;;;1.1;;
73421;SDS011;61637;47.760;-122.022;2024-02-21T11:42:02;2.4;;;0.8;;
73421;SDS011;61637;47.760;-122.022;2024-02-21T11:44:01;2.3;;;0.8;;
73421;SDS011;61637;47.760;-122.022;2024-02-21T11:46:02;2.1;;;0.8;;
73421;SDS011;61637;47.760;-122.022;2024-02-21T11:48:01;3.9;;;0.8;;
73421;SDS011;61637;47.760;-122.022;2024-02-21T11:50:01;3.4;;;1.0;;
73421;SDS011;61637;47.760;-122.022;2024-02-21T11:52:02;2.9;;;0.8;;
73421;SDS011;61637;47.760;-122.022;2024-02-21T11:54:01;2.8;;;0.8;;